Saltar para o conteúdo principal

Castro Marim (RN Sapal)

ID 1210867 · 37.2167, -7.4500 mapa

Última leitura · 2026-05-09 18:00 (Europe/Lisbon)

Temperatura
19.5 °C
Humidade
71 %
Pressão
Precipitação
0.0 mm
Radiação
1,937 W/m²
Velocidade do vento
33.1 km/h
Direcção do vento
SW · Sudoeste

Histórico de 24 horas

Hora (Europe/Lisbon) Temperatura Humidade Pressão Chuva Vento Direcção
2026-05-09 18:00 19.5 °C 71 % 0.0 mm 33.1 km/h SW
2026-05-09 17:00 19.7 °C 72 % 0.0 mm 35.6 km/h SW
2026-05-09 16:00 19.6 °C 70 % 0.0 mm 35.3 km/h SW
2026-05-09 15:00 19.7 °C 68 % 0.0 mm 30.2 km/h SW
2026-05-09 14:00 19.3 °C 69 % 0.0 mm 31.0 km/h SW
2026-05-09 13:00 18.8 °C 70 % 0.0 mm 32.0 km/h SW
2026-05-09 12:00 18.6 °C 72 % 0.0 mm 37.1 km/h SW
2026-05-09 11:00 18.0 °C 78 % 0.0 mm 36.0 km/h SW
2026-05-09 10:00 16.7 °C 87 % 0.0 mm 30.6 km/h SW
2026-05-09 09:00 16.7 °C 85 % 3.2 mm 32.8 km/h SW
2026-05-09 08:00 16.4 °C 84 % 1.0 mm 29.2 km/h S
2026-05-09 07:00 16.5 °C 89 % 0.2 mm 32.0 km/h SW
2026-05-09 06:00 16.0 °C 89 % 0.0 mm 21.2 km/h SE
2026-05-09 05:00 17.1 °C 85 % 0.1 mm 33.8 km/h S
2026-05-09 04:00 17.4 °C 80 % 0.0 mm 29.2 km/h S
2026-05-09 03:00 17.4 °C 82 % 0.0 mm 29.2 km/h S
2026-05-09 02:00 15.9 °C 82 % 0.0 mm 22.0 km/h S
2026-05-09 01:00 15.5 °C 80 % 0.0 mm 1.4 km/h NE
2026-05-09 00:00 17.1 °C 76 % 0.0 mm 9.0 km/h W
2026-05-08 23:00 17.5 °C 75 % 0.0 mm 16.6 km/h S
2026-05-08 22:00 17.6 °C 75 % 0.0 mm 20.9 km/h S
2026-05-08 21:00 17.6 °C 72 % 0.0 mm 18.0 km/h S
2026-05-08 20:00 18.4 °C 66 % 0.0 mm 15.1 km/h S
2026-05-08 19:00 18.9 °C 64 % 0.0 mm 19.1 km/h S